Terminal Aerodrome Forecast
Issued by NWS

Home | Current Version | Previous Version | Text Only | Print | Product List | Glossary On
Versions: 1 2 3 4 5 6 7 8 9 10 11 12 13 14 15 16 17 18 19 20 21 22 23 24
000
FTUS45 KGJT 271729
TAFCNY
TAF
KCNY 271729Z 2718/2818 22013G18KT P6SM SKC
     FM272100 25015G27KT P6SM SKC
     FM280200 28009KT P6SM SKC
     FM280500 23005KT P6SM SKC
     FM281600 24014KT P6SM SKC=

USA.gov is the U.S. government's official web portal to all federal, state and local government web resources and services.